createdAt,value
2018-08-03T00:00:17.715Z,0.00
2018-08-03T00:01:17.649Z,0.00
2018-08-03T00:02:17.585Z,0.00
2018-08-03T00:03:17.515Z,0.00
2018-08-03T00:04:17.447Z,0.00
2018-08-03T00:05:17.379Z,0.00
2018-08-03T00:06:17.312Z,0.00
2018-08-03T00:07:17.246Z,0.00
2018-08-03T00:08:17.175Z,0.00
2018-08-03T00:09:17.109Z,0.00
2018-08-03T00:10:17.040Z,0.00
2018-08-03T00:11:16.973Z,0.00
2018-08-03T00:12:16.908Z,0.00
2018-08-03T00:13:16.839Z,0.00
2018-08-03T00:14:16.773Z,0.00
2018-08-03T00:15:16.703Z,0.00
2018-08-03T00:16:16.634Z,0.00
2018-08-03T00:17:16.568Z,0.00
2018-08-03T00:18:16.502Z,0.00
2018-08-03T00:19:16.434Z,0.00
2018-08-03T00:20:16.365Z,0.00
2018-08-03T00:21:16.298Z,0.00
2018-08-03T00:22:16.230Z,0.00
2018-08-03T00:23:16.164Z,0.00
2018-08-03T00:24:16.094Z,0.00
2018-08-03T00:25:16.027Z,0.00
2018-08-03T00:26:15.959Z,0.00
2018-08-03T00:27:15.892Z,0.00
2018-08-03T00:28:15.825Z,0.00
2018-08-03T00:29:15.757Z,0.00
2018-08-03T00:30:15.690Z,0.00
2018-08-03T00:31:15.623Z,0.00
2018-08-03T00:32:15.554Z,0.00
2018-08-03T00:33:15.487Z,0.00
2018-08-03T00:34:15.420Z,0.00
2018-08-03T00:35:15.352Z,0.00
2018-08-03T00:36:15.284Z,0.00
2018-08-03T00:37:15.216Z,0.00
2018-08-03T00:38:15.149Z,0.00
2018-08-03T00:39:15.081Z,0.00
2018-08-03T00:40:15.013Z,0.00
2018-08-03T00:41:14.946Z,0.00
2018-08-03T00:42:14.878Z,0.00
2018-08-03T00:43:14.812Z,0.00
2018-08-03T00:44:14.742Z,0.00
2018-08-03T00:45:14.675Z,0.00
2018-08-03T00:46:14.608Z,0.00
2018-08-03T00:47:14.540Z,0.00
2018-08-03T00:48:14.472Z,0.00
2018-08-03T00:49:14.406Z,0.00
2018-08-03T00:50:14.338Z,0.00
2018-08-03T00:51:14.270Z,0.00
2018-08-03T00:52:14.235Z,0.00
2018-08-03T00:53:14.134Z,0.00
2018-08-03T00:54:14.069Z,0.00
2018-08-03T00:55:14.001Z,0.00
2018-08-03T00:56:13.931Z,0.00
2018-08-03T00:57:13.871Z,0.00
2018-08-03T00:58:13.797Z,0.00
2018-08-03T00:59:13.728Z,0.00
2018-08-03T01:00:13.662Z,0.00
2018-08-03T01:01:13.598Z,0.00
2018-08-03T01:02:13.528Z,0.00
2018-08-03T01:03:13.461Z,0.00
2018-08-03T01:04:13.391Z,0.00
2018-08-03T01:05:13.327Z,0.00
2018-08-03T01:06:13.257Z,0.00
2018-08-03T01:07:13.189Z,0.00
2018-08-03T01:08:13.121Z,0.00
2018-08-03T01:09:13.054Z,0.00
2018-08-03T01:10:12.988Z,0.00
2018-08-03T01:11:12.920Z,0.00
2018-08-03T01:12:12.853Z,0.00
2018-08-03T01:13:12.787Z,0.00
2018-08-03T01:14:12.717Z,0.00
2018-08-03T01:15:12.648Z,0.00
2018-08-03T01:16:12.581Z,0.00
2018-08-03T01:17:12.512Z,0.00
2018-08-03T01:18:12.446Z,0.00
2018-08-03T01:19:12.379Z,0.00
2018-08-03T01:20:12.312Z,0.00
2018-08-03T01:21:12.243Z,0.00
2018-08-03T01:22:12.176Z,0.00
2018-08-03T01:23:12.108Z,0.00
2018-08-03T01:24:12.041Z,0.00
2018-08-03T01:25:11.973Z,0.00
2018-08-03T01:26:11.905Z,0.00
2018-08-03T01:27:11.839Z,0.00
2018-08-03T01:28:11.770Z,0.00
2018-08-03T01:29:11.704Z,0.00
2018-08-03T01:30:11.635Z,0.00
2018-08-03T01:31:11.568Z,0.00
2018-08-03T01:32:11.499Z,0.00
2018-08-03T01:33:11.435Z,0.00
2018-08-03T01:34:11.365Z,0.00
2018-08-03T01:35:11.297Z,0.00
2018-08-03T01:36:11.228Z,0.00
2018-08-03T01:37:11.174Z,0.00
2018-08-03T01:38:11.094Z,0.00
2018-08-03T01:39:11.026Z,0.00
2018-08-03T01:40:10.958Z,0.00
2018-08-03T01:41:10.891Z,0.00
2018-08-03T01:42:10.825Z,0.00
2018-08-03T01:43:10.759Z,0.00
2018-08-03T01:44:10.689Z,0.00
2018-08-03T01:45:10.621Z,0.00
2018-08-03T01:46:10.554Z,0.00
2018-08-03T01:47:10.485Z,0.00
2018-08-03T01:48:10.416Z,0.00
2018-08-03T01:49:10.350Z,0.00
2018-08-03T01:50:10.283Z,0.00
2018-08-03T01:51:10.215Z,0.00
2018-08-03T01:52:10.149Z,0.00
2018-08-03T01:53:10.078Z,0.00
2018-08-03T01:54:10.012Z,0.00
2018-08-03T01:55:09.943Z,0.00
2018-08-03T01:56:09.875Z,0.00
2018-08-03T01:57:09.809Z,0.00
2018-08-03T01:58:09.740Z,0.00
2018-08-03T01:59:09.740Z,0.00
2018-08-03T02:00:09.605Z,0.00
2018-08-03T02:01:09.534Z,0.00
2018-08-03T02:02:09.471Z,0.00
2018-08-03T02:03:09.447Z,0.00
2018-08-03T02:04:09.331Z,0.00
2018-08-03T02:05:09.262Z,0.00
2018-08-03T02:06:09.196Z,0.00
2018-08-03T02:07:09.127Z,0.00
2018-08-03T02:08:09.058Z,0.00
2018-08-03T02:09:08.990Z,0.00
2018-08-03T02:10:08.921Z,0.00
2018-08-03T02:11:08.858Z,0.00
2018-08-03T02:12:08.787Z,0.00
2018-08-03T02:13:08.719Z,0.00
2018-08-03T02:14:08.649Z,0.00
2018-08-03T02:15:08.581Z,0.00
2018-08-03T02:16:08.510Z,0.00
2018-08-03T02:17:08.446Z,0.00
2018-08-03T02:18:08.378Z,0.00
2018-08-03T02:19:08.320Z,0.00
2018-08-03T02:20:08.238Z,0.00
2018-08-03T02:21:08.169Z,0.00
2018-08-03T02:22:08.108Z,0.00
2018-08-03T02:23:08.033Z,0.00
2018-08-03T02:24:07.967Z,0.00
2018-08-03T02:25:07.893Z,0.00
2018-08-03T02:26:07.827Z,0.00
2018-08-03T02:27:07.758Z,0.00
2018-08-03T02:28:07.689Z,0.00
2018-08-03T02:29:07.619Z,0.00
2018-08-03T02:30:07.553Z,0.00
2018-08-03T02:31:07.485Z,0.00
2018-08-03T02:32:07.414Z,0.00
2018-08-03T02:33:07.345Z,0.00
2018-08-03T02:34:07.275Z,0.00
2018-08-03T02:35:07.208Z,0.00
2018-08-03T02:36:07.138Z,0.00
2018-08-03T02:37:07.070Z,0.00
2018-08-03T02:38:07.004Z,0.00
2018-08-03T02:39:06.936Z,0.00
2018-08-03T02:40:06.862Z,0.00
2018-08-03T02:41:06.793Z,0.00
2018-08-03T02:42:06.726Z,0.00
2018-08-03T02:43:06.657Z,0.00
2018-08-03T02:44:06.587Z,0.00
2018-08-03T02:45:06.518Z,0.00
2018-08-03T02:46:06.454Z,0.00
2018-08-03T02:47:06.380Z,0.00
2018-08-03T02:48:06.311Z,0.00
2018-08-03T02:49:06.248Z,0.00
2018-08-03T02:50:06.173Z,0.00
2018-08-03T02:51:06.104Z,0.00
2018-08-03T02:52:06.035Z,0.00
2018-08-03T02:53:05.971Z,0.00
2018-08-03T02:54:05.899Z,0.00
2018-08-03T02:55:05.830Z,0.00
2018-08-03T02:56:05.759Z,0.00
2018-08-03T02:57:05.691Z,0.00
2018-08-03T02:58:05.624Z,0.00
2018-08-03T02:59:05.552Z,0.00
2018-08-03T03:00:05.488Z,0.00
2018-08-03T03:01:05.413Z,0.00
2018-08-03T03:02:05.344Z,0.00
2018-08-03T03:03:05.276Z,0.00
2018-08-03T03:04:05.207Z,0.00
2018-08-03T03:05:05.138Z,0.00
2018-08-03T03:06:05.070Z,0.00
2018-08-03T03:07:05.004Z,0.00
2018-08-03T03:08:04.931Z,0.00
2018-08-03T03:09:04.861Z,0.00
2018-08-03T03:10:04.793Z,0.00
2018-08-03T03:11:04.723Z,0.00
2018-08-03T03:12:04.654Z,0.00
2018-08-03T03:13:04.583Z,0.00
2018-08-03T03:14:04.516Z,0.00
2018-08-03T03:15:04.447Z,0.00
2018-08-03T03:16:04.378Z,0.00
2018-08-03T03:17:04.308Z,0.00
2018-08-03T03:18:04.239Z,0.00
2018-08-03T03:19:04.170Z,0.00
2018-08-03T03:20:04.100Z,0.00
2018-08-03T03:21:04.031Z,0.00
2018-08-03T03:22:03.962Z,0.00
2018-08-03T03:23:03.893Z,0.00
2018-08-03T03:24:03.826Z,0.00
2018-08-03T03:25:03.754Z,4.00
2018-08-03T03:26:03.685Z,4.00
2018-08-03T03:27:03.615Z,4.00
2018-08-03T03:28:03.546Z,0.00
2018-08-03T03:29:03.479Z,4.00
2018-08-03T03:30:03.406Z,4.00
2018-08-03T03:31:03.339Z,4.00
2018-08-03T03:32:03.273Z,4.00
2018-08-03T03:33:03.200Z,4.00
2018-08-03T03:34:03.130Z,8.00
2018-08-03T03:35:03.060Z,8.00
2018-08-03T03:36:02.992Z,8.00
2018-08-03T03:37:02.921Z,8.00
2018-08-03T03:38:02.850Z,12.00
2018-08-03T03:39:02.781Z,12.00
2018-08-03T03:40:02.714Z,16.00
2018-08-03T03:41:02.641Z,16.00
2018-08-03T03:42:02.572Z,24.00
2018-08-03T03:43:02.503Z,24.00
2018-08-03T03:44:02.434Z,28.00
2018-08-03T03:45:02.365Z,32.00
2018-08-03T03:46:02.295Z,36.00
2018-08-03T03:47:02.225Z,44.00
2018-08-03T03:48:02.155Z,44.00
2018-08-03T03:49:02.085Z,52.00
2018-08-03T03:50:02.017Z,60.00
2018-08-03T03:51:01.982Z,64.00
2018-08-03T03:52:01.877Z,72.00
2018-08-03T03:53:01.807Z,80.00
2018-08-03T03:54:01.739Z,88.00
2018-08-03T03:55:01.667Z,96.00
2018-08-03T03:56:01.598Z,108.00
2018-08-03T03:57:01.529Z,116.00
2018-08-03T03:58:01.460Z,128.00
2018-08-03T03:59:01.389Z,136.00
2018-08-03T04:00:01.320Z,148.00
2018-08-03T04:01:01.250Z,160.00
2018-08-03T04:02:01.180Z,172.00
2018-08-03T04:03:01.114Z,184.00
2018-08-03T04:04:01.042Z,196.00
2018-08-03T04:05:00.970Z,208.00
2018-08-03T04:06:00.900Z,220.00
2018-08-03T04:07:00.832Z,236.00
2018-08-03T04:08:00.762Z,248.00
2018-08-03T04:09:00.692Z,264.00
2018-08-03T04:10:00.622Z,276.00
2018-08-03T04:11:00.620Z,296.00
2018-08-03T04:12:00.483Z,308.00
2018-08-03T04:13:00.413Z,324.00
2018-08-03T04:14:00.344Z,336.00
2018-08-03T04:15:00.275Z,352.00
2018-08-03T04:16:00.243Z,368.00
2018-08-03T04:17:00.135Z,384.00
2018-08-03T04:18:00.065Z,400.00
2018-08-03T04:18:59.997Z,416.00
2018-08-03T04:19:59.925Z,432.00
2018-08-03T04:20:59.858Z,448.00
2018-08-03T04:21:59.787Z,464.00
2018-08-03T04:22:59.718Z,480.00
2018-08-03T04:23:59.649Z,496.00
2018-08-03T04:24:59.577Z,512.00
2018-08-03T04:25:59.508Z,528.00
2018-08-03T04:26:59.438Z,544.00
2018-08-03T04:27:59.370Z,560.00
2018-08-03T04:28:59.299Z,576.00
2018-08-03T04:29:59.230Z,592.00
2018-08-03T04:30:59.160Z,608.00
2018-08-03T04:31:59.089Z,624.00
2018-08-03T04:32:59.021Z,640.00
2018-08-03T04:33:58.950Z,652.00
2018-08-03T04:34:58.881Z,672.00
2018-08-03T04:35:58.811Z,688.00
2018-08-03T04:36:58.741Z,700.00
2018-08-03T04:37:58.672Z,716.00
2018-08-03T04:38:58.627Z,732.00
2018-08-03T04:39:58.533Z,744.00
2018-08-03T04:40:58.463Z,756.00
2018-08-03T04:41:58.393Z,776.00
2018-08-03T04:42:58.325Z,792.00
2018-08-03T04:43:58.254Z,804.00
2018-08-03T04:44:58.186Z,816.00
2018-08-03T04:45:58.116Z,832.00
2018-08-03T04:46:58.053Z,848.00
2018-08-03T04:47:57.975Z,860.00
2018-08-03T04:48:57.949Z,876.00
2018-08-03T04:49:57.838Z,888.00
2018-08-03T04:50:57.769Z,900.00
2018-08-03T04:51:57.700Z,920.00
2018-08-03T04:52:57.631Z,932.00
2018-08-03T04:53:57.559Z,944.00
2018-08-03T04:54:57.490Z,960.00
2018-08-03T04:55:57.424Z,972.00
2018-08-03T04:56:57.351Z,980.00
2018-08-03T04:57:57.281Z,992.00
2018-08-03T04:58:57.211Z,1004.00
2018-08-03T04:59:57.145Z,1016.00
2018-08-03T05:00:57.072Z,1028.00
2018-08-03T05:01:57.004Z,1036.00
2018-08-03T05:02:56.934Z,1048.00
2018-08-03T05:03:56.864Z,1060.00
2018-08-03T05:04:56.797Z,1072.00
2018-08-03T05:05:56.726Z,1080.00
2018-08-03T05:06:56.656Z,1092.00
2018-08-03T05:07:56.588Z,1100.00
2018-08-03T05:08:56.518Z,1116.00
2018-08-03T05:09:56.449Z,1136.00
2018-08-03T05:10:56.379Z,1156.00
2018-08-03T05:11:56.310Z,1176.00
2018-08-03T05:12:56.240Z,1192.00
2018-08-03T05:13:56.176Z,1204.00
2018-08-03T05:14:56.101Z,1220.00
2018-08-03T05:15:56.031Z,1232.00
2018-08-03T05:16:55.962Z,1248.00
2018-08-03T05:17:55.893Z,1260.00
2018-08-03T05:18:55.823Z,1268.00
2018-08-03T05:19:55.754Z,1284.00
2018-08-03T05:20:55.685Z,1296.00
2018-08-03T05:21:55.615Z,1308.00
2018-08-03T05:22:55.547Z,1316.00
2018-08-03T05:23:55.476Z,1332.00
2018-08-03T05:24:55.406Z,1340.00
2018-08-03T05:25:55.339Z,1352.00
2018-08-03T05:26:55.270Z,1364.00
2018-08-03T05:27:55.200Z,1376.00
2018-08-03T05:28:55.131Z,1384.00
2018-08-03T05:29:55.061Z,1396.00
2018-08-03T05:30:54.994Z,1404.00
2018-08-03T05:31:54.928Z,1412.00
2018-08-03T05:32:54.855Z,1424.00
2018-08-03T05:33:54.787Z,1428.00
2018-08-03T05:34:54.717Z,1444.00
2018-08-03T05:35:54.666Z,1452.00
2018-08-03T05:36:54.578Z,1464.00
2018-08-03T05:37:54.510Z,1480.00
2018-08-03T05:38:54.441Z,1488.00
2018-08-03T05:39:54.373Z,1504.00
2018-08-03T05:40:54.301Z,1516.00
2018-08-03T05:41:54.234Z,1524.00
2018-08-03T05:42:54.168Z,1536.00
2018-08-03T05:43:54.095Z,1548.00
2018-08-03T05:44:54.030Z,1556.00
2018-08-03T05:45:53.960Z,1560.00
2018-08-03T05:46:53.890Z,1572.00
2018-08-03T05:47:53.821Z,1584.00
2018-08-03T05:48:53.751Z,1596.00
2018-08-03T05:49:53.684Z,1604.00
2018-08-03T05:50:53.615Z,1616.00
2018-08-03T05:51:53.546Z,1624.00
2018-08-03T05:52:53.477Z,1636.00
2018-08-03T05:53:53.409Z,1644.00
2018-08-03T05:54:53.340Z,1652.00
2018-08-03T05:55:53.271Z,1660.00
2018-08-03T05:56:53.202Z,1668.00
2018-08-03T05:57:53.142Z,1676.00
2018-08-03T05:58:53.066Z,1680.00
2018-08-03T05:59:52.997Z,1696.00
2018-08-03T06:00:52.932Z,1704.00
2018-08-03T06:01:52.860Z,1712.00
2018-08-03T06:02:52.794Z,1720.00
2018-08-03T06:03:52.775Z,1728.00
2018-08-03T06:04:52.659Z,1736.00
2018-08-03T06:05:52.584Z,1740.00
2018-08-03T06:06:52.516Z,1752.00
2018-08-03T06:07:52.451Z,1756.00
2018-08-03T06:08:52.380Z,1760.00
2018-08-03T06:09:52.313Z,1768.00
2018-08-03T06:10:52.244Z,1776.00
2018-08-03T06:11:52.176Z,1784.00
2018-08-03T06:12:52.106Z,1788.00
2018-08-03T06:13:52.039Z,1796.00
2018-08-03T06:14:52.015Z,1804.00
2018-08-03T06:15:51.900Z,1812.00
2018-08-03T06:16:51.832Z,1816.00
2018-08-03T06:17:51.765Z,1820.00
2018-08-03T06:18:51.697Z,1824.00
2018-08-03T06:19:51.627Z,1824.00
2018-08-03T06:20:51.561Z,1828.00
2018-08-03T06:21:51.492Z,1832.00
2018-08-03T06:22:51.427Z,1832.00
2018-08-03T06:23:51.356Z,1840.00
2018-08-03T06:24:51.288Z,1840.00
2018-08-03T06:25:51.220Z,1848.00
2018-08-03T06:26:51.152Z,1856.00
2018-08-03T06:27:51.085Z,1856.00
2018-08-03T06:28:51.017Z,1864.00
2018-08-03T06:29:50.949Z,1868.00
2018-08-03T06:30:50.882Z,1872.00
2018-08-03T06:31:50.814Z,1880.00
2018-08-03T06:32:50.745Z,1884.00
2018-08-03T06:33:50.678Z,1888.00
2018-08-03T06:34:50.610Z,1892.00
2018-08-03T06:35:50.542Z,1896.00
2018-08-03T06:36:50.475Z,1904.00
2018-08-03T06:37:50.410Z,1912.00
2018-08-03T06:38:50.340Z,1912.00
2018-08-03T06:39:50.272Z,1916.00
2018-08-03T06:40:50.204Z,1916.00
2018-08-03T06:41:50.138Z,1920.00
2018-08-03T06:42:50.073Z,1928.00
2018-08-03T06:43:50.004Z,1928.00
2018-08-03T06:44:49.935Z,1940.00
2018-08-03T06:45:49.868Z,1944.00
2018-08-03T06:46:49.802Z,1948.00
2018-08-03T06:47:49.734Z,1948.00
2018-08-03T06:48:49.668Z,1956.00
2018-08-03T06:49:49.599Z,1956.00
2018-08-03T06:50:49.532Z,1960.00
2018-08-03T06:51:49.464Z,1968.00
2018-08-03T06:52:49.399Z,1972.00
2018-08-03T06:53:49.406Z,1984.00
2018-08-03T06:54:49.263Z,1976.00
2018-08-03T06:55:49.196Z,1980.00
2018-08-03T06:56:49.130Z,1988.00
2018-08-03T06:57:49.063Z,1984.00
2018-08-03T06:58:48.998Z,1988.00
2018-08-03T06:59:48.929Z,2000.00
2018-08-03T07:00:48.866Z,2004.00
2018-08-03T07:01:48.796Z,2012.00
2018-08-03T07:02:48.840Z,2020.00
2018-08-03T07:03:48.661Z,2028.00
2018-08-03T07:04:48.594Z,2028.00
2018-08-03T07:05:48.529Z,2036.00
2018-08-03T07:06:48.463Z,2040.00
2018-08-03T07:07:48.393Z,2044.00
2018-08-03T07:08:48.327Z,2048.00
2018-08-03T07:09:48.261Z,2052.00
2018-08-03T07:10:48.195Z,2052.00
2018-08-03T07:11:48.129Z,2056.00
2018-08-03T07:12:48.061Z,2056.00
2018-08-03T07:13:47.995Z,2060.00
2018-08-03T07:14:47.987Z,2060.00
2018-08-03T07:15:47.861Z,2064.00
2018-08-03T07:16:47.796Z,2068.00
2018-08-03T07:17:47.729Z,2076.00
2018-08-03T07:18:47.664Z,2080.00
2018-08-03T07:19:47.609Z,2092.00
2018-08-03T07:20:47.529Z,2096.00
2018-08-03T07:21:47.464Z,2100.00
2018-08-03T07:22:47.402Z,2108.00
2018-08-03T07:23:47.330Z,2124.00
2018-08-03T07:24:47.266Z,2120.00
2018-08-03T07:25:47.211Z,2120.00
2018-08-03T07:26:47.132Z,2132.00
2018-08-03T07:27:47.065Z,2140.00
2018-08-03T07:28:47.001Z,2148.00
2018-08-03T07:29:46.934Z,2160.00
2018-08-03T07:30:46.868Z,2180.00
2018-08-03T07:31:46.801Z,2172.00
2018-08-03T07:32:46.736Z,2176.00
2018-08-03T07:33:46.670Z,2180.00
2018-08-03T07:34:46.604Z,2188.00
2018-08-03T07:35:46.536Z,2196.00
2018-08-03T07:36:46.477Z,2204.00
2018-08-03T07:37:46.405Z,2212.00
2018-08-03T07:38:46.340Z,2220.00
2018-08-03T07:39:46.273Z,2228.00
2018-08-03T07:40:46.208Z,2236.00
2018-08-03T07:41:46.142Z,2240.00
2018-08-03T07:42:46.089Z,2248.00
2018-08-03T07:43:46.009Z,2256.00
2018-08-03T07:44:45.948Z,2264.00
2018-08-03T07:45:45.879Z,2276.00
2018-08-03T07:46:45.812Z,2288.00
2018-08-03T07:47:45.746Z,2304.00
2018-08-03T07:48:45.680Z,2320.00
2018-08-03T07:49:45.614Z,2340.00
2018-08-03T07:50:45.548Z,2348.00
2018-08-03T07:51:45.482Z,2360.00
2018-08-03T07:52:45.417Z,2372.00
2018-08-03T07:53:45.353Z,2380.00
2018-08-03T07:54:45.286Z,2388.00
2018-08-03T07:55:45.221Z,2400.00
2018-08-03T07:56:45.155Z,2408.00
2018-08-03T07:57:45.090Z,2420.00
2018-08-03T07:58:45.024Z,2428.00
2018-08-03T07:59:44.956Z,2436.00
2018-08-03T08:00:44.892Z,2444.00
2018-08-03T08:01:44.826Z,2452.00
2018-08-03T08:02:44.762Z,2456.00
2018-08-03T08:03:44.694Z,2464.00
2018-08-03T08:04:44.630Z,2468.00
2018-08-03T08:05:44.564Z,2476.00
2018-08-03T08:06:44.500Z,2488.00
2018-08-03T08:07:44.435Z,2492.00
2018-08-03T08:08:44.368Z,2500.00
2018-08-03T08:09:44.354Z,2512.00
2018-08-03T08:10:44.239Z,2516.00
2018-08-03T08:11:44.173Z,2516.00
2018-08-03T08:12:44.107Z,2528.00
2018-08-03T08:13:44.042Z,2528.00
2018-08-03T08:14:43.977Z,2524.00
2018-08-03T08:15:43.924Z,2532.00
2018-08-03T08:16:43.871Z,2540.00
2018-08-03T08:17:43.781Z,2560.00
2018-08-03T08:18:43.718Z,2576.00
2018-08-03T08:19:43.650Z,2584.00
2018-08-03T08:20:43.585Z,2588.00
2018-08-03T08:21:43.520Z,2588.00
2018-08-03T08:22:43.455Z,2592.00
2018-08-03T08:23:43.390Z,2596.00
2018-08-03T08:24:43.324Z,2596.00
2018-08-03T08:25:43.260Z,2612.00
2018-08-03T08:26:43.196Z,2616.00
2018-08-03T08:27:43.129Z,2632.00
2018-08-03T08:28:43.063Z,2648.00
2018-08-03T08:29:42.997Z,2668.00
2018-08-03T08:30:42.935Z,2676.00
2018-08-03T08:31:42.923Z,2692.00
2018-08-03T08:32:42.802Z,2700.00
2018-08-03T08:33:42.737Z,2704.00
2018-08-03T08:34:42.673Z,2716.00
2018-08-03T08:35:42.608Z,2712.00
2018-08-03T08:36:42.542Z,2712.00
2018-08-03T08:37:42.475Z,2748.00
2018-08-03T08:38:42.414Z,2768.00
2018-08-03T08:39:42.348Z,2780.00
2018-08-03T08:40:42.282Z,2788.00
2018-08-03T08:41:42.217Z,2796.00
2018-08-03T08:42:42.154Z,2808.00
2018-08-03T08:43:42.167Z,2828.00
2018-08-03T08:44:42.022Z,2832.00
2018-08-03T08:45:41.958Z,2840.00
2018-08-03T08:46:41.892Z,2864.00
2018-08-03T08:47:41.827Z,2868.00
2018-08-03T08:48:41.764Z,2896.00
2018-08-03T08:49:41.697Z,2924.00
2018-08-03T08:50:41.634Z,2932.00
2018-08-03T08:51:41.568Z,2952.00
2018-08-03T08:52:41.506Z,2968.00
2018-08-03T08:53:41.440Z,2972.00
2018-08-03T08:54:41.384Z,2996.00
2018-08-03T08:55:41.311Z,2980.00
2018-08-03T08:56:41.245Z,3008.00
2018-08-03T08:57:41.181Z,2984.00
2018-08-03T08:58:41.115Z,3004.00
2018-08-03T08:59:41.097Z,3000.00
2018-08-03T09:00:40.984Z,3036.00
2018-08-03T09:01:40.921Z,3024.00
2018-08-03T09:02:40.857Z,3040.00
2018-08-03T09:03:40.793Z,3044.00
2018-08-03T09:04:40.727Z,3084.00
2018-08-03T09:05:40.663Z,3100.00
2018-08-03T09:06:40.601Z,3096.00
2018-08-03T09:07:40.572Z,3100.00
2018-08-03T09:08:40.468Z,3108.00
2018-08-03T09:09:40.405Z,3164.00
2018-08-03T09:10:40.341Z,3184.00
2018-08-03T09:11:40.274Z,3152.00
2018-08-03T09:12:40.291Z,3128.00
2018-08-03T09:13:40.145Z,3124.00
2018-08-03T09:14:40.083Z,3144.00
2018-08-03T09:15:40.019Z,3168.00
2018-08-03T09:16:39.953Z,3176.00
2018-08-03T09:17:39.887Z,3192.00
2018-08-03T09:18:39.860Z,3212.00
2018-08-03T09:19:39.759Z,3236.00
2018-08-03T09:20:39.695Z,3228.00
2018-08-03T09:21:39.632Z,3228.00
2018-08-03T09:22:39.567Z,3240.00
2018-08-03T09:23:39.504Z,3276.00
2018-08-03T09:24:39.503Z,3280.00
2018-08-03T09:25:39.374Z,3296.00
2018-08-03T09:26:39.310Z,3312.00
2018-08-03T09:27:39.244Z,3324.00
2018-08-03T09:28:39.180Z,3312.00
2018-08-03T09:29:39.116Z,3344.00
2018-08-03T09:30:39.060Z,3296.00
2018-08-03T09:31:38.987Z,3352.00
2018-08-03T09:32:38.922Z,3344.00
2018-08-03T09:33:38.859Z,3372.00
2018-08-03T09:34:38.795Z,3408.00
2018-08-03T09:35:38.733Z,3408.00
2018-08-03T09:36:38.759Z,3396.00
2018-08-03T09:37:38.601Z,3420.00
2018-08-03T09:38:38.538Z,3404.00
2018-08-03T09:39:38.473Z,3376.00
2018-08-03T09:40:38.415Z,3404.00
2018-08-03T09:41:38.347Z,3372.00
2018-08-03T09:42:38.284Z,3452.00
2018-08-03T09:43:38.216Z,3456.00
2018-08-03T09:44:38.155Z,3476.00
2018-08-03T09:45:38.090Z,3496.00
2018-08-03T09:46:38.025Z,3512.00
2018-08-03T09:47:37.971Z,3524.00
2018-08-03T09:48:37.897Z,3568.00
2018-08-03T09:49:37.835Z,3616.00
2018-08-03T09:50:37.769Z,3628.00
2018-08-03T09:51:37.704Z,3664.00
2018-08-03T09:52:37.640Z,3656.00
2018-08-03T09:53:37.576Z,3612.00
2018-08-03T09:54:37.512Z,3668.00
2018-08-03T09:55:37.447Z,3692.00
2018-08-03T09:56:37.382Z,3724.00
2018-08-03T09:57:37.319Z,3752.00
2018-08-03T09:58:37.262Z,3768.00
2018-08-03T09:59:37.190Z,3832.00
2018-08-03T10:00:37.126Z,3848.00
2018-08-03T10:01:37.095Z,3884.00
2018-08-03T10:02:37.000Z,3908.00
2018-08-03T10:03:36.934Z,3924.00
2018-08-03T10:04:36.869Z,3956.00
2018-08-03T10:05:36.806Z,3980.00
2018-08-03T10:06:36.750Z,3996.00
2018-08-03T10:07:36.678Z,4000.00
2018-08-03T10:08:36.618Z,4048.00
2018-08-03T10:09:36.551Z,4052.00
2018-08-03T10:10:36.487Z,4056.00
2018-08-03T10:11:36.422Z,4048.00
2018-08-03T10:12:36.357Z,4092.00
2018-08-03T10:13:36.295Z,4124.00
2018-08-03T10:14:36.235Z,4184.00
2018-08-03T10:15:36.170Z,4204.00
2018-08-03T10:16:36.104Z,4252.00
2018-08-03T10:17:36.039Z,4284.00
2018-08-03T10:18:35.978Z,4312.00
2018-08-03T10:19:35.911Z,4416.00
2018-08-03T10:20:35.848Z,4476.00
2018-08-03T10:21:35.785Z,4480.00
2018-08-03T10:22:35.721Z,4480.00
2018-08-03T10:23:35.657Z,4488.00
2018-08-03T10:24:35.593Z,4516.00
2018-08-03T10:25:35.530Z,4500.00
2018-08-03T10:26:35.466Z,4480.00
2018-08-03T10:27:35.401Z,4524.00
2018-08-03T10:28:35.340Z,4608.00
2018-08-03T10:29:35.328Z,4732.00
2018-08-03T10:30:35.213Z,4824.00
2018-08-03T10:31:35.147Z,4860.00
2018-08-03T10:32:35.083Z,4876.00
2018-08-03T10:33:35.020Z,4932.00
2018-08-03T10:34:34.957Z,4844.00
2018-08-03T10:35:34.892Z,4940.00
2018-08-03T10:36:34.834Z,4968.00
2018-08-03T10:37:34.773Z,5088.00
2018-08-03T10:38:34.702Z,5176.00
2018-08-03T10:39:34.638Z,5108.00
2018-08-03T10:40:34.575Z,5108.00
2018-08-03T10:41:34.511Z,5156.00
2018-08-03T10:42:34.448Z,5180.00
2018-08-03T10:43:34.384Z,5144.00
2018-08-03T10:44:34.320Z,5316.00
2018-08-03T10:45:34.257Z,5432.00
2018-08-03T10:46:34.194Z,5436.00
2018-08-03T10:47:34.129Z,5308.00
2018-08-03T10:48:34.067Z,5316.00
2018-08-03T10:49:34.004Z,5404.00
2018-08-03T10:50:33.940Z,5696.00
2018-08-03T10:51:33.875Z,6100.00
2018-08-03T10:52:33.815Z,6252.00
2018-08-03T10:53:33.749Z,6152.00
2018-08-03T10:54:33.687Z,5992.00
2018-08-03T10:55:33.624Z,5856.00
2018-08-03T10:56:33.559Z,5800.00
2018-08-03T10:57:33.502Z,5964.00
2018-08-03T10:58:33.433Z,6728.00
2018-08-03T10:59:33.369Z,7536.00
2018-08-03T11:00:33.305Z,7360.00
2018-08-03T11:01:33.290Z,7048.00
2018-08-03T11:02:33.180Z,7748.00
2018-08-03T11:03:33.116Z,7068.00
2018-08-03T11:04:33.054Z,17664.00
2018-08-03T11:05:32.998Z,18752.00
2018-08-03T11:06:32.927Z,37760.00
2018-08-03T11:07:32.864Z,8144.00
2018-08-03T11:08:32.801Z,17824.00
2018-08-03T11:09:32.739Z,51456.00
2018-08-03T11:10:32.676Z,60928.00
2018-08-03T11:11:32.614Z,52896.00
2018-08-03T11:12:32.552Z,16544.00
2018-08-03T11:13:32.537Z,13784.00
2018-08-03T11:14:32.430Z,13656.00
2018-08-03T11:15:32.365Z,9964.00
2018-08-03T11:16:32.304Z,20704.00
2018-08-03T11:17:32.242Z,11852.00
2018-08-03T11:18:32.190Z,14516.00
2018-08-03T11:19:32.118Z,6812.00
2018-08-03T11:20:32.059Z,8016.00
2018-08-03T11:21:32.000Z,8608.00
2018-08-03T11:22:31.934Z,9884.00
2018-08-03T11:23:31.872Z,8324.00
2018-08-03T11:24:31.816Z,8744.00
2018-08-03T11:25:31.748Z,8356.00
2018-08-03T11:26:31.688Z,8932.00
2018-08-03T11:27:31.625Z,8372.00
2018-08-03T11:28:31.566Z,9376.00
2018-08-03T11:29:31.507Z,8632.00
2018-08-03T11:30:31.441Z,8336.00
2018-08-03T11:31:31.379Z,8788.00
2018-08-03T11:32:31.316Z,12680.00
2018-08-03T11:33:31.257Z,13696.00
2018-08-03T11:34:31.194Z,10932.00
2018-08-03T11:35:31.133Z,9096.00
2018-08-03T11:36:31.071Z,11208.00
2018-08-03T11:37:31.009Z,31488.00
2018-08-03T11:38:30.948Z,26816.00
2018-08-03T11:39:30.886Z,20864.00
2018-08-03T11:40:30.824Z,13264.00
2018-08-03T11:41:30.763Z,22368.00
2018-08-03T11:42:30.701Z,16352.00
2018-08-03T11:43:30.639Z,17276.00
2018-08-03T11:44:30.578Z,10724.00
2018-08-03T11:45:30.518Z,8732.00
2018-08-03T11:46:30.457Z,8324.00
2018-08-03T11:47:30.395Z,8444.00
2018-08-03T11:48:30.415Z,8524.00
2018-08-03T11:49:30.273Z,8256.00
2018-08-03T11:50:30.214Z,8032.00
2018-08-03T11:51:30.150Z,7396.00
2018-08-03T11:52:30.088Z,7152.00
2018-08-03T11:53:30.029Z,7780.00
2018-08-03T11:54:29.965Z,8324.00
2018-08-03T11:55:29.903Z,8924.00
2018-08-03T11:56:29.842Z,11120.00
2018-08-03T11:57:29.779Z,57056.00
2018-08-03T11:58:29.719Z,102400.00
2018-08-03T11:59:29.662Z,88288.00
2018-08-03T12:00:29.594Z,101280.00
2018-08-03T12:01:29.533Z,103488.00
2018-08-03T12:02:29.474Z,100672.00
2018-08-03T12:03:29.418Z,97568.00
2018-08-03T12:04:29.351Z,97440.00
2018-08-03T12:05:29.293Z,97728.00
2018-08-03T12:06:29.349Z,86144.00
2018-08-03T12:07:29.383Z,18272.00
2018-08-03T12:08:29.119Z,15132.00
2018-08-03T12:09:29.062Z,15188.00
2018-08-03T12:10:29.006Z,16856.00
2018-08-03T12:11:28.947Z,64288.00
2018-08-03T12:12:28.938Z,106720.00
2018-08-03T12:13:28.836Z,107424.00
2018-08-03T12:14:28.776Z,110720.00
2018-08-03T12:15:28.719Z,108832.00
2018-08-03T12:16:28.662Z,106912.00
2018-08-03T12:17:28.607Z,101312.00
2018-08-03T12:18:28.557Z,11784.00
2018-08-03T12:19:28.495Z,9600.00
2018-08-03T12:20:28.440Z,8852.00
2018-08-03T12:21:28.385Z,8264.00
2018-08-03T12:22:28.328Z,7936.00
2018-08-03T12:23:28.287Z,7760.00
2018-08-03T12:24:28.213Z,7504.00
2018-08-03T12:25:28.157Z,7652.00